Flight Track Log - Related Links

Times and Time Zones

All times are in EDT time to prevent confusion due to time zone crossing. See the CPZ5750 flight status page for this flight to view local times or setup timezone preferences in your user account.

Time Position Orientation Groundspeed Altitude Reporting Facility
EDT Latitude Longitude Course Direction KTS MPH feet Rate Location/Type
Sun 07:36:05 PM 42.8075 -73.7506 North 267 307 5,100  Level Boston Center
Sun 07:37:05 PM 42.8439 -73.8417 299° West 222 255 8,200 2,550 Climbing Boston Center
Sun 07:38:05 PM 42.8783 -73.9389 296° West 235 270 10,200 2,000 Climbing Boston Center
Sun 07:39:05 PM 42.9103 -74.0361 294° West 288 331 12,200 2,200 Climbing Boston Center
Sun 07:40:05 PM 42.9608 -74.1425 303° West 309 356 14,600 2,150 Climbing Boston Center
Sun 07:41:05 PM 43.0222 -74.2150 319° Northwest 315 362 16,500 1,950 Climbing Boston Center
Sun 07:42:05 PM 43.0956 -74.3139 315° West 327 376 18,500 1,750 Climbing Boston Center
Sun 07:43:05 PM 43.1417 -74.4264 299° West 332 382 20,000 1,250 Climbing Boston Center
Sun 07:44:05 PM 43.1750 -74.5525 290° West 337 388 21,000 500 Climbing Boston Center
Sun 07:45:05 PM 43.2058 -74.6761 289° West 344 396 21,000  Level Boston Center
Sun 07:46:05 PM 43.2408 -74.8000 291° West 349 402 21,000  Level Boston Center
Sun 07:47:05 PM 43.2736 -74.9267 290° West 349 402 21,000  Level Boston Center
Sun 07:48:05 PM 43.3025 -75.0308 291° West 349 402 21,000 350 Level Boston Center
Sun 07:49:05 PM 43.3447 -75.1925 290° West 355 409 21,700 950 Climbing Boston Center
Sun 07:50:05 PM 43.3811 -75.3256 291° West 392 451 22,900 1,150 Climbing Boston Center
Sun 07:51:05 PM 43.4169 -75.4672 289° West 399 459 24,000 1,050 Climbing Boston Center
Sun 07:52:05 PM 43.4547 -75.6122 290° West 399 459 25,000 1,000 Climbing Boston Center
Sun 07:53:05 PM 43.4942 -75.7631 290° West 412 474 26,000 1,000 Climbing Boston Center
Sun 07:54:05 PM 43.5314 -75.9114 289° West 412 474 27,000 900 Climbing Boston Center
Sun 07:55:05 PM 43.5703 -76.0683 289° West 417 480 27,800 750 Climbing Boston Center
Sun 07:56:05 PM 43.6092 -76.2197 290° West 423 487 28,500 750 Climbing Boston Center
Sun 07:57:05 PM 43.6475 -76.3803 288° West 429 494 29,300 900 Climbing Boston Center
Sun 07:58:05 PM 43.6786 -76.5086 289° West 434 499 30,300 1,121 Climbing Boston Center
Sun 07:58:52 PM 43.7000 -76.6500 282° West 430 495 31,300 1,009 Climbing Toronto Center
Sun 07:59:52 PM 43.7500 -76.8000 295° West 420 483 32,100 900 Climbing Toronto Center
Sun 08:00:52 PM 43.7833 -76.9500 287° West 430 495 33,100 900 Climbing Toronto Center
Sun 08:01:52 PM 43.8167 -77.1167 286° West 410 472 33,900 450 Climbing Toronto Center
Sun 08:02:52 PM 43.8500 -77.2500 289° West 410 472 34,000 50 Climbing Toronto Center
Sun 08:03:52 PM 43.9000 -77.4167 293° West 420 483 34,000  Level Toronto Center
Sun 08:04:52 PM 43.9333 -77.5667 287° West 420 483 34,000  Level Toronto Center
Sun 08:05:52 PM 43.9500 -77.7167 279° West 420 483 34,000  Level Toronto Center
Sun 08:06:52 PM 43.9833 -77.8667 287° West 420 483 34,000  Level Toronto Center
Sun 08:07:52 PM 44.0167 -78.0333 286° West 420 483 34,000  Level Toronto Center
Sun 08:08:52 PM 44.0500 -78.1667 289° West 420 483 34,000  Level Toronto Center
Sun 08:09:52 PM 44.0833 -78.3500 284° West 420 483 34,000  Level Toronto Center
Sun 08:10:52 PM 44.1333 -78.5000 295° West 420 483 34,000  Level Toronto Center
Sun 08:11:52 PM 44.1667 -78.6500 287° West 420 483 34,000  Level Toronto Center
Sun 08:12:52 PM 44.2000 -78.8167 286° West 420 483 34,000  Level Toronto Center
Sun 08:13:52 PM 44.2333 -78.9833 286° West 420 483 34,000  Level Toronto Center
Sun 08:14:52 PM 44.2667 -79.1167 289° West 420 483 34,000  Level Toronto Center
Sun 08:15:52 PM 44.3000 -79.2833 286° West 420 483 34,000  Level Toronto Center
Sun 08:16:52 PM 44.3333 -79.4500 286° West 420 483 34,000  Level Toronto Center
Sun 08:17:52 PM 44.3667 -79.5833 289° West 420 483 34,000  Level Toronto Center
Sun 08:18:52 PM 44.4000 -79.7500 286° West 420 483 34,000  Level Toronto Center
Sun 08:19:52 PM 44.4000 -79.9167 270° West 420 483 34,000  Level Toronto Center
Sun 08:20:52 PM 44.4000 -80.0833 270° West 420 483 34,000  Level Toronto Center
Sun 08:21:52 PM 44.4000 -80.2333 270° West 410 472 34,000  Level Toronto Center
Sun 08:22:52 PM 44.4000 -80.4000 270° West 410 472 34,000  Level Toronto Center
Sun 08:23:52 PM 44.3833 -80.5667 262° West 420 483 34,000  Level Toronto Center
Sun 08:24:52 PM 44.3833 -80.7333 270° West 420 483 34,000  Level Toronto Center
Sun 08:25:52 PM 44.3667 -80.9000 262° West 420 483 34,000  Level Toronto Center
Sun 08:26:52 PM 44.3667 -81.0500 270° West 420 483 34,000  Level Toronto Center
Sun 08:27:52 PM 44.3667 -81.2167 270° West 420 483 34,000  Level Toronto Center
Sun 08:28:52 PM 44.3500 -81.3833 262° West 430 495 34,000  Level Toronto Center
Sun 08:29:52 PM 44.3500 -81.5500 270° West 430 495 34,000  Level Toronto Center
Sun 08:30:52 PM 44.3500 -81.7333 270° West 430 495 34,000  Level Toronto Center
Sun 08:31:52 PM 44.3500 -81.9000 270° West 430 495 34,000  Level Toronto Center
Sun 08:32:52 PM 44.3333 -82.0500 261° West 430 495 34,000  Level Toronto Center
Sun 08:33:52 PM 44.3167 -82.2167 262° West 430 495 34,000  Level Toronto Center
Sun 08:34:52 PM 44.3333 -82.4000 277° West 430 495 34,000  Level Toronto Center
Sun 08:35:52 PM 44.3667 -82.5667 286° West 440 506 34,000  Level Toronto Center
Sun 08:36:52 PM 44.3667 -82.7167 270° West 440 506 34,000  Level Toronto Center
Sun 08:37:34 PM 44.3953 -82.8378 288° West 442 509 34,000 173 Level Minneapolis Center
Sun 08:38:36 PM 44.4103 -83.0067 277° West 441 507 34,300 634 Climbing Minneapolis Center
Sun 08:39:37 PM 44.4175 -83.1711 274° West 431 496 35,300 829 Climbing Minneapolis Center
Sun 08:40:39 PM 44.4261 -83.3344 274° West 424 488 36,000 339 Climbing Minneapolis Center
Sun 08:41:41 PM 44.4347 -83.5328 274° West 426 490 36,000  Level Minneapolis Center
Sun 08:42:43 PM 44.4436 -83.7033 274° West 437 503 36,000  Level Minneapolis Center
Sun 08:43:45 PM 44.4506 -83.8750 273° West 442 509 36,000  Level Minneapolis Center
Sun 08:44:47 PM 44.4578 -84.0442 273° West 439 505 36,000  Level Minneapolis Center
Sun 08:45:49 PM 44.4656 -84.2147 274° West 440 506 36,000 -48 Level Minneapolis Center
Sun 08:46:51 PM 44.4733 -84.3836 274° West 437 503 35,900  Descending Minneapolis Center
Sun 08:47:53 PM 44.4797 -84.5869 273° West 436 502 36,000 48 Climbing Minneapolis Center
Sun 08:48:55 PM 44.4858 -84.7556 273° West 435 501 36,000 -48 Level Minneapolis Center
Sun 08:49:57 PM 44.4917 -84.9225 273° West 433 498 35,900  Descending Minneapolis Center
Sun 08:50:59 PM 44.4981 -85.0897 273° West 431 496 36,000 48 Climbing Minneapolis Center
Sun 08:52:01 PM 44.5036 -85.2550 273° West 426 490 36,000  Level Minneapolis Center
Sun 08:53:03 PM 44.5069 -85.4169 272° West 419 482 36,000  Level Minneapolis Center
Sun 08:54:05 PM 44.5122 -85.5808 273° West 420 483 36,000  Level Minneapolis Center
Sun 08:55:07 PM 44.5167 -85.7772 272° West 420 483 36,000  Level Minneapolis Center
Sun 08:56:09 PM 44.5203 -85.9394 272° West 413 475 36,000  Level Minneapolis Center
Sun 08:57:10 PM 44.5236 -86.0700 272° West 415 478 36,000  Level Minneapolis Center
Sun 08:58:13 PM 44.5283 -86.2672 272° West 418 481 36,000  Level Minneapolis Center
Sun 08:59:14 PM 44.5317 -86.3972 272° West 416 479 36,000  Level Minneapolis Center
Sun 09:00:17 PM 44.5353 -86.5922 272° West 416 479 36,000  Level Minneapolis Center
Sun 09:01:18 PM 44.5386 -86.7531 272° West 414 476 36,000  Level Minneapolis Center
Sun 09:02:20 PM 44.5408 -86.9142 271° West 414 476 36,000  Level Minneapolis Center
Sun 09:03:22 PM 44.5439 -87.1069 271° West 414 476 36,000  Level Minneapolis Center
Sun 09:04:24 PM 44.5461 -87.2375 271° West 416 479 36,000  Level Minneapolis Center
Sun 09:05:26 PM 44.5483 -87.4328 271° West 417 480 36,000  Level Minneapolis Center
Sun 09:06:41 PM 44.5522 -87.6267 272° West 414 476 36,000  Level Minneapolis Center
Sun 09:07:43 PM 44.5533 -87.7842 271° West 408 470 36,000  Level Minneapolis Center
Sun 09:08:45 PM 44.5547 -87.9597 271° West 405 466 36,000  Level Minneapolis Center
Sun 09:09:47 PM 44.5542 -88.1186 270° West 409 471 36,000  Level Minneapolis Center
Sun 09:10:49 PM 44.5644 -88.2778 275° West 411 473 36,000  Level Minneapolis Center
Sun 09:11:51 PM 44.5858 -88.4578 280° West 405 466 36,000  Level Minneapolis Center
Sun 09:12:53 PM 44.6039 -88.6114 279° West 402 463 36,000  Level Minneapolis Center
Sun 09:13:55 PM 44.6217 -88.7644 279° West 398 458 36,000  Level Minneapolis Center
Sun 09:14:57 PM 44.6386 -88.9186 279° West 401 461 36,000  Level Minneapolis Center
Sun 09:15:59 PM 44.6569 -89.0747 279° West 403 464 36,000  Level Minneapolis Center
Sun 09:17:01 PM 44.6764 -89.2589 279° West 408 470 36,000  Level Minneapolis Center
Sun 09:18:03 PM 44.6936 -89.4128 279° West 401 461 36,000 -242 Level Minneapolis Center
Sun 09:19:05 PM 44.7100 -89.5661 279° West 398 458 35,500 -794 Descending Minneapolis Center
Sun 09:20:19 PM 44.7258 -89.7189 278° West 396 456 34,200 -1,412 Descending Minneapolis Center
Sun 09:21:21 PM 44.7331 -89.9300 273° West 415 478 32,300 -1,403 Descending Minneapolis Center
Sun 09:22:23 PM 44.6603 -90.0603 232° Southwest 435 501 31,300 -968 Descending Minneapolis Center
Sun 09:23:25 PM 44.5753 -90.1797 225° Southwest 435 501 30,300 -1,645 Descending Minneapolis Center
Sun 09:24:27 PM 44.5372 -90.3303 251° West 424 488 27,900 -1,645 Descending Minneapolis Center
Sun 09:25:29 PM 44.5692 -90.4892 286° West 423 487 26,900 -1,065 Descending Minneapolis Center
Sun 09:26:31 PM 44.6161 -90.6567 292° West 409 471 25,700 -1,161 Descending Minneapolis Center
Sun 09:27:33 PM 44.6564 -90.8025 291° West 404 465 24,500 -1,147 Descending Minneapolis Center
Sun 09:28:47 PM 44.6956 -90.9472 291° West 400 460 23,100 -1,176 Descending Minneapolis Center
Sun 09:30:01 PM 44.7428 -91.1178 291° West 395 455 21,600 -1,368 Descending Minneapolis Center
Sun 09:31:03 PM 44.7881 -91.2875 291° West 390 449 20,000 -1,452 Descending Minneapolis Center
Sun 09:32:05 PM 44.8297 -91.4464 290° West 369 425 18,600 -1,268 Descending Minneapolis Center
Sun 09:33:06 PM 44.8647 -91.5758 291° West 359 413 17,400 -1,220 Descending Minneapolis Center
Sun 09:34:08 PM 44.8925 -91.7022 287° West 347 399 16,100 -1,306 Descending Minneapolis Center
Sun 09:35:10 PM 44.9086 -91.8308 280° West 338 389 14,700 -1,366 Descending Minneapolis Center
Sun 09:36:11 PM 44.9250 -91.9578 280° West 331 381 13,300 -1,220 Descending Minneapolis Center
Sun 09:37:13 PM 44.9406 -92.0753 281° West 305 351 12,200 -1,048 Descending Minneapolis Center
Sun 09:38:17 PM 44.9586 -92.2133 281° West 301 346 11,100 -571 Descending Minneapolis Center
Sun 09:39:19 PM 44.9775 -92.3272 283° West 301 346 11,000 -146 Descending Minneapolis Center
Sun 09:40:20 PM 44.9522 -92.4300 251° West 291 335 10,800 -976 Descending Minneapolis Center
Sun 09:41:22 PM 44.9197 -92.5308 246° West 286 329 9,000 -1,756 Descending Minneapolis Center
Sun 09:42:23 PM 44.9211 -92.6425 271° West 283 326 7,200 -976 Descending Minneapolis Center
Sun 09:43:25 PM 44.8906 -92.7397 246° West 273 314 7,000 -537 Descending Minneapolis Center
Sun 09:44:26 PM 44.8608 -92.8203 243° Southwest 235 270 6,100 -1,171 Descending Minneapolis Center
Sun 09:45:28 PM 44.8258 -92.9183 243° Southwest 234 269 4,600 -1,452 Descending Minneapolis Center

Login

Don't have an account? Register now (free) for customized features, flight alerts, and more!